Time;durP1;ratioP1;P1;durP2;ratioP2;P2;SDS_P1;SDS_P2;PMS_P1;PMS_P2;Temp;Humidity;BMP_temperature;BMP_pressure;BME280_temperature;BME280_humidity;BME280_pressure;Samples;Min_cycle;Max_cycle;Signal;HPM_P1;HPM_P2
2021/04/20 00:00:59;;;;;;;1999.90;999.90;;;;;;;10.98;100.00;-18201.59;4941503;29;20208;-36
2021/04/20 00:03:46;;;;;;;1999.90;999.90;;;;;;;11.19;100.00;-18207.09;4958181;29;20207;-31
2021/04/20 00:06:32;;;;;;;1999.90;999.90;;;;;;;11.19;100.00;-18206.94;4959985;29;20368;-35
2021/04/20 00:09:19;;;;;;;1999.90;999.90;;;;;;;11.27;100.00;-18209.22;4952346;29;20209;-33
2021/04/20 00:12:05;;;;;;;1999.90;999.90;;;;;;;11.29;100.00;-18209.63;4942104;29;20216;-35
2021/04/20 00:14:54;;;;;;;1999.90;999.90;;;;;;;11.10;100.00;-18204.53;4941321;29;20228;-34
2021/04/20 00:17:44;;;;;;;1999.90;999.90;;;;;;;11.18;100.00;-18206.81;4941754;29;20228;-33
2021/04/20 00:20:31;;;;;;;1999.90;999.90;;;;;;;11.45;100.00;-18213.75;4945196;29;20212;-34
2021/04/20 00:23:19;;;;;;;1999.90;999.90;;;;;;;11.58;100.00;-18217.25;4960180;29;20307;-35
2021/04/20 00:26:07;;;;;;;1999.90;999.90;;;;;;;11.15;100.00;-18206.00;4960129;29;20608;-34
2021/04/20 00:28:53;;;;;;;1999.90;999.90;;;;;;;11.55;100.00;-18216.44;4942636;29;20212;-35
2021/04/20 00:31:40;;;;;;;1999.90;999.90;;;;;;;11.67;100.00;-18219.78;4943170;29;20213;-35
2021/04/20 00:34:25;;;;;;;1999.90;999.90;;;;;;;11.60;100.00;-18217.78;4953575;29;20511;-34
2021/04/20 00:37:16;;;;;;;1999.90;999.90;;;;;;;11.64;100.00;-18218.84;4955727;29;20636;-34
2021/04/20 00:40:03;;;;;;;1999.90;999.90;;;;;;;11.74;100.00;-18221.66;4941203;29;20208;-32
2021/04/20 00:42:52;;;;;;;1999.90;999.90;;;;;;;11.74;100.00;-18221.50;4949074;29;20208;-35
2021/04/20 00:45:40;;;;;;;1999.90;999.90;;;;;;;10.96;100.00;-18200.94;4960248;29;20204;-33
2021/04/20 00:48:26;;;;;;;1999.90;999.90;;;;;;;11.48;100.00;-18214.69;4942332;29;20356;-35
2021/04/20 00:51:17;;;;;;;1999.90;999.90;;;;;;;11.63;100.00;-18218.56;4942753;29;20209;-36
2021/04/20 00:54:05;;;;;;;1999.90;999.90;;;;;;;11.65;100.00;-18219.25;4959528;29;20232;-36
2021/04/20 00:56:51;;;;;;;1999.90;999.90;;;;;;;11.07;100.00;-18203.88;4958960;29;20367;-38
2021/04/20 00:59:38;;;;;;;1999.90;999.90;;;;;;;11.21;100.00;-18207.63;4960007;29;20626;-35
2021/04/20 01:02:24;;;;;;;1999.90;999.90;;;;;;;11.35;100.00;-18211.38;4948617;29;20216;-35
2021/04/20 01:05:12;;;;;;;1999.90;999.90;;;;;;;11.30;100.00;-18210.03;4940647;29;20204;-36
2021/04/20 01:08:00;;;;;;;1999.90;999.90;;;;;;;11.03;100.00;-18202.94;4958049;28;20207;-33
2021/04/20 01:10:48;;;;;;;1999.90;999.90;;;;;;;11.09;100.00;-18204.41;4959173;29;20232;-36
2021/04/20 01:13:38;;;;;;;1999.90;999.90;;;;;;;11.01;100.00;-18202.28;4940468;29;20679;-36
2021/04/20 01:16:24;;;;;;;1999.90;999.90;;;;;;;10.90;100.00;-18199.34;4940228;29;20271;-34
2021/04/20 01:19:15;;;;;;;1999.90;999.90;;;;;;;10.80;100.00;-18196.66;4944293;29;20228;-33
2021/04/20 01:22:02;;;;;;;1999.90;999.90;;;;;;;11.12;100.00;-18205.22;4959453;29;20619;-37
2021/04/20 01:24:51;;;;;;;1999.90;999.90;;;;;;;10.92;100.00;-18199.88;4951804;29;20208;-32
2021/04/20 01:27:37;;;;;;;1999.90;999.90;;;;;;;11.28;100.00;-18209.50;4939924;29;20205;-33
2021/04/20 01:30:24;;;;;;;1999.90;999.90;;;;;;;10.83;100.00;-18197.59;4956325;29;20212;-37
2021/04/20 01:33:10;;;;;;;1999.90;999.90;;;;;;;10.89;100.00;-18199.19;4959115;29;20304;-32
2021/04/20 01:35:56;;;;;;;1999.90;999.90;;;;;;;11.49;100.00;-18214.97;4959146;29;20719;-32
2021/04/20 01:38:46;;;;;;;1999.90;999.90;;;;;;;11.10;100.00;-18204.53;4958723;29;20590;-33
2021/04/20 01:41:33;;;;;;;1999.90;999.90;;;;;;;11.08;100.00;-18204.16;4958602;29;20628;-36
2021/04/20 01:44:20;;;;;;;1999.90;999.90;;;;;;;11.14;100.00;-18205.63;4958572;29;20269;-33
2021/04/20 01:47:10;;;;;;;1999.90;999.90;;;;;;;11.33;100.00;-18210.69;4958428;29;20272;-34
2021/04/20 01:49:56;;;;;;;1999.90;999.90;;;;;;;11.20;100.00;-18207.22;4958776;29;20609;-37
2021/04/20 01:52:43;;;;;;;1999.90;999.90;;;;;;;11.31;100.00;-18210.28;4958163;29;20212;-35
2021/04/20 01:55:30;;;;;;;1999.90;999.90;;;;;;;11.39;100.00;-18212.44;4944077;29;20236;-32
2021/04/20 01:58:18;;;;;;;1999.90;999.90;;;;;;;11.71;100.00;-18220.72;4943727;29;20256;-35
2021/04/20 02:01:05;;;;;;;1999.90;999.90;;;;;;;12.05;100.00;-18229.78;4939475;29;20203;-32
2021/04/20 02:03:52;;;;;;;1999.90;999.90;;;;;;;12.00;100.00;-18228.47;4956151;29;20256;-33
2021/04/20 02:06:39;;;;;;;1999.90;999.90;;;;;;;12.05;100.00;-18229.66;4959012;29;20207;-37
2021/04/20 02:09:25;;;;;;;1999.90;999.90;;;;;;;11.46;100.00;-18214.03;4939861;29;20208;-33
2021/04/20 02:12:15;;;;;;;1999.90;999.90;;;;;;;11.66;100.00;-18219.38;4952201;29;20228;-33
2021/04/20 02:15:03;;;;;;;1999.90;999.90;;;;;;;11.53;100.00;-18215.91;4958538;29;20234;-36
2021/04/20 02:17:50;;;;;;;1999.90;999.90;;;;;;;11.63;100.00;-18218.56;4958234;29;20307;-33
2021/04/20 02:20:41;;;;;;;1999.90;999.90;;;;;;;11.64;100.00;-18218.84;4964435;29;20273;-32
2021/04/20 02:23:28;;;;;;;1999.90;999.90;;;;;;;11.62;100.00;-18218.31;4945632;29;20619;-37
2021/04/20 02:26:17;;;;;;;1999.90;999.90;;;;;;;11.61;100.00;-18218.03;4964918;28;20208;-34
2021/04/20 02:29:05;;;;;;;1999.90;999.90;;;;;;;11.36;100.00;-18211.50;4964441;29;20211;-35
2021/04/20 02:31:52;;;;;;;1999.90;999.90;;;;;;;10.83;100.00;-18197.59;4964207;28;20354;-36
2021/04/20 02:34:39;;;;;;;1999.90;999.90;;;;;;;11.15;100.00;-18205.88;4964172;28;20227;-35
2021/04/20 02:37:25;;;;;;;1999.90;999.90;;;;;;;11.21;100.00;-18207.63;4965192;28;20329;-33
2021/04/20 02:40:17;;;;;;;1999.90;999.90;;;;;;;11.26;100.00;-18208.94;4963864;29;20702;-32
2021/04/20 02:43:04;;;;;;;1999.90;999.90;;;;;;;11.14;100.00;-18205.63;4964716;29;20355;-33
2021/04/20 02:45:52;;;;;;;1999.90;999.90;;;;;;;11.29;100.00;-18209.63;4963609;29;20369;-33
2021/04/20 02:48:40;;;;;;;1999.90;999.90;;;;;;;11.23;100.00;-18208.03;4963192;29;20211;-33
2021/04/20 02:51:29;;;;;;;1999.90;999.90;;;;;;;11.24;100.00;-18208.41;4964285;28;20215;-34
2021/04/20 02:54:15;;;;;;;1999.90;999.90;;;;;;;11.27;100.00;-18209.09;4964344;28;20297;-33
2021/04/20 02:57:03;;;;;;;1999.90;999.90;;;;;;;11.34;100.00;-18210.97;4961946;29;20821;-34
2021/04/20 02:59:50;;;;;;;1999.90;999.90;;;;;;;10.98;100.00;-18201.59;4954892;28;20226;-33
2021/04/20 03:02:39;;;;;;;1999.90;999.90;;;;;;;10.85;100.00;-18198.13;4964055;28;20215;-35
2021/04/20 03:05:29;;;;;;;1999.90;999.90;;;;;;;11.09;100.00;-18204.28;4951636;29;20220;-32
2021/04/20 03:08:16;;;;;;;1999.90;999.90;;;;;;;11.03;100.00;-18202.81;4945201;29;20204;-33
2021/04/20 03:11:06;;;;;;;1999.90;999.90;;;;;;;11.06;100.00;-18203.59;4960416;28;20215;-34
2021/04/20 03:13:52;;;;;;;1999.90;999.90;;;;;;;10.89;100.00;-18199.06;4944850;29;20257;-33
2021/04/20 03:16:49;;;;;;;1999.90;999.90;;;;;;;10.82;100.00;-18197.31;4945317;29;20651;-32
2021/04/20 03:19:35;;;;;;;1999.90;999.90;;;;;;;10.83;100.00;-18197.47;4945292;29;20208;-35
2021/04/20 03:22:24;;;;;;;1999.90;999.90;;;;;;;10.90;100.00;-18199.34;4945646;29;20363;-34
2021/04/20 03:25:20;;;;;;;1999.90;999.90;;;;;;;10.91;100.00;-18199.59;4945124;29;20201;-35
2021/04/20 03:28:06;;;;;;;1999.90;999.90;;;;;;;10.86;100.00;-18198.25;4962785;28;20315;-35
2021/04/20 03:30:54;;;;;;;1999.90;999.90;;;;;;;10.80;100.00;-18196.66;4961800;28;20313;-32
2021/04/20 03:33:42;;;;;;;1999.90;999.90;;;;;;;10.82;100.00;-18197.19;4948098;29;20240;-34
2021/04/20 03:36:33;;;;;;;1999.90;999.90;;;;;;;10.70;100.00;-18194.25;4961447;29;20199;-32
2021/04/20 03:39:22;;;;;;;1999.90;999.90;;;;;;;10.47;100.00;-18188.09;4959450;29;20586;-34
2021/04/20 03:42:12;;;;;;;1999.90;999.90;;;;;;;10.66;100.00;-18193.06;4950508;29;20291;-32
2021/04/20 03:45:01;;;;;;;1999.90;999.90;;;;;;;10.56;100.00;-18190.50;4960829;29;20609;-35
2021/04/20 03:47:51;;;;;;;1999.90;999.90;;;;;;;9.78;100.00;-18169.91;4960548;29;20223;-32
2021/04/20 03:50:41;;;;;;;1999.90;999.90;;;;;;;10.00;100.00;-18175.66;4960444;29;20722;-36
2021/04/20 03:53:29;;;;;;;1999.90;999.90;;;;;;;9.94;100.00;-18174.19;4954539;29;20207;-33
2021/04/20 03:56:17;;;;;;;1999.90;999.90;;;;;;;10.19;100.00;-18180.63;4961205;29;20200;-34
2021/04/20 03:59:05;;;;;;;1999.90;999.90;;;;;;;10.62;100.00;-18191.97;4959379;29;20252;-35
2021/04/20 04:01:52;;;;;;;1999.90;999.90;;;;;;;10.64;100.00;-18192.66;4960720;29;20267;-35
2021/04/20 04:04:42;;;;;;;1999.90;999.90;;;;;;;10.65;100.00;-18192.78;4960528;29;20299;-37
2021/04/20 04:07:31;;;;;;;1999.90;999.90;;;;;;;10.01;100.00;-18176.06;4951104;29;20217;-37
2021/04/20 04:10:21;;;;;;;1999.90;999.90;;;;;;;10.36;100.00;-18185.16;4944686;29;20275;-35
2021/04/20 04:13:11;;;;;;;1999.90;999.90;;;;;;;10.02;100.00;-18176.31;4960397;29;20355;-33
2021/04/20 04:16:00;;;;;;;1999.90;999.90;;;;;;;9.83;100.00;-18171.09;4960201;29;20246;-32
2021/04/20 04:18:50;;;;;;;1999.90;999.90;;;;;;;9.43;100.00;-18160.53;4960709;29;20307;-35
2021/04/20 04:21:44;;;;;;;1999.90;999.90;;;;;;;9.31;100.00;-18157.47;4959474;29;20675;-33
2021/04/20 04:24:36;;;;;;;1999.90;999.90;;;;;;;9.85;100.00;-18171.78;4960559;29;20203;-34
2021/04/20 04:27:26;;;;;;;1999.90;999.90;;;;;;;10.13;100.00;-18179.13;4959643;29;20216;-33
2021/04/20 04:30:15;;;;;;;1999.90;999.90;;;;;;;10.03;100.00;-18176.59;4960515;29;20647;-37
2021/04/20 04:33:03;;;;;;;1999.90;999.90;;;;;;;9.76;100.00;-18169.38;4941091;29;20208;-37
2021/04/20 04:35:53;;;;;;;1999.90;999.90;;;;;;;9.90;100.00;-18172.97;4944396;29;20615;-35
2021/04/20 04:38:39;;;;;;;1999.90;999.90;;;;;;;9.89;100.00;-18172.84;4958781;29;20223;-34
2021/04/20 04:41:27;;;;;;;1999.90;999.90;;;;;;;9.83;100.00;-18171.25;4959066;28;20223;-34
2021/04/20 04:44:13;;;;;;;1999.90;999.90;;;;;;;9.74;100.00;-18168.84;4954157;29;20212;-38
2021/04/20 04:47:00;;;;;;;1999.90;999.90;;;;;;;9.65;100.00;-18166.44;4941036;29;20284;-34
2021/04/20 04:49:48;;;;;;;1999.90;999.90;;;;;;;9.63;100.00;-18165.91;4949525;29;20228;-33
2021/04/20 04:52:35;;;;;;;1999.90;999.90;;;;;;;9.35;100.00;-18158.41;4959386;29;20545;-32
2021/04/20 04:55:21;;;;;;;1999.90;999.90;;;;;;;9.74;100.00;-18168.72;4946264;29;20645;-34
2021/04/20 04:58:09;;;;;;;1999.90;999.90;;;;;;;9.62;100.00;-18165.63;4939962;29;20308;-32
2021/04/20 05:00:56;;;;;;;1999.90;999.90;;;;;;;9.62;100.00;-18165.75;4941653;29;20216;-35
2021/04/20 05:03:43;;;;;;;1999.90;999.90;;;;;;;9.92;100.00;-18173.66;4959739;29;20244;-34
2021/04/20 05:06:29;;;;;;;1999.90;999.90;;;;;;;10.08;100.00;-18177.66;4939785;29;20608;-35
2021/04/20 05:09:20;;;;;;;1999.90;999.90;;;;;;;10.16;100.00;-18179.81;4939272;29;20260;-32
2021/04/20 05:12:09;;;;;;;1999.90;999.90;;;;;;;10.03;100.00;-18176.59;4939544;29;20219;-37
2021/04/20 05:14:55;;;;;;;1999.90;999.90;;;;;;;10.10;100.00;-18178.19;4939550;29;20229;-34
2021/04/20 05:17:44;;;;;;;1999.90;999.90;;;;;;;10.01;100.00;-18176.06;4939852;29;20200;-33
2021/04/20 05:20:32;;;;;;;1999.90;999.90;;;;;;;9.79;100.00;-18170.03;4939296;29;20532;-34
2021/04/20 05:23:20;;;;;;;1999.90;999.90;;;;;;;10.02;100.00;-18176.31;4939201;29;20212;-33
2021/04/20 05:26:06;;;;;;;1999.90;999.90;;;;;;;10.50;100.00;-18188.91;4938531;29;20215;-37
2021/04/20 05:28:52;;;;;;;1999.90;999.90;;;;;;;10.77;100.00;-18196.00;4939420;29;20212;-36
2021/04/20 05:31:38;;;;;;;1999.90;999.90;;;;;;;11.00;100.00;-18202.00;4939872;29;20212;-35
2021/04/20 05:34:24;;;;;;;1999.90;999.90;;;;;;;11.28;100.00;-18209.34;4938795;29;20519;-33
2021/04/20 05:37:13;;;;;;;1999.90;999.90;;;;;;;11.77;100.00;-18222.31;4938690;29;20204;-33
2021/04/20 05:40:07;;;;;;;1999.90;999.90;;;;;;;12.79;100.00;-18249.03;4939031;29;20193;-33
2021/04/20 05:42:57;;;;;;;1999.90;999.90;;;;;;;13.77;100.00;-18274.91;4939041;29;20503;-33
2021/04/20 05:45:50;;;;;;;1999.90;999.90;;;;;;;14.47;100.00;-18293.44;4938445;29;20260;-32
2021/04/20 05:48:48;;;;;;;1999.90;999.90;;;;;;;14.98;100.00;-18306.75;4938581;29;20365;-37
2021/04/20 05:51:40;;;;;;;1999.90;999.90;;;;;;;15.41;100.00;-18318.06;4938702;29;20228;-34
2021/04/20 05:54:27;;;;;;;1999.90;999.90;;;;;;;15.91;100.00;-18331.13;4938889;29;20421;-35
2021/04/20 05:57:19;;;;;;;1999.90;999.90;;;;;;;16.08;97.28;-18335.66;4937955;29;20344;-33
2021/04/20 06:00:10;;;;;;;1999.90;999.90;;;;;;;16.32;94.54;-18341.91;4938807;29;20208;-35
2021/04/20 06:03:00;;;;;;;1999.90;999.90;;;;;;;16.24;94.11;-18339.78;4938935;29;20592;-35
2021/04/20 06:05:47;;;;;;;1999.90;999.90;;;;;;;15.85;96.81;-18329.53;4938534;29;20224;-35
2021/04/20 06:08:33;;;;;;;1999.90;999.90;;;;;;;15.68;100.00;-18325.00;4938301;29;20200;-32
2021/04/20 06:11:21;;;;;;;1999.90;999.90;;;;;;;15.92;100.00;-18331.41;4938012;29;20203;-32
2021/04/20 06:14:07;;;;;;;1999.90;999.90;;;;;;;16.34;96.67;-18342.31;4938586;29;20225;-33
2021/04/20 06:16:54;;;;;;;1999.90;999.90;;;;;;;16.45;95.38;-18345.38;4938828;29;20204;-34
2021/04/20 06:19:41;;;;;;;1999.90;999.90;;;;;;;16.75;93.51;-18353.22;4938644;29;20204;-36
2021/04/20 06:22:27;;;;;;;1999.90;999.90;;;;;;;17.11;89.48;-18362.53;4939145;29;20208;-32
2021/04/20 06:25:16;;;;;;;1999.90;999.90;;;;;;;16.90;91.38;-18356.94;4938462;29;20309;-32
2021/04/20 06:28:04;;;;;;;1999.90;999.90;;;;;;;15.52;94.87;-18321.00;4938474;29;20208;-33
2021/04/20 06:30:51;;;;;;;1999.90;999.90;;;;;;;15.91;100.00;-18331.13;4938622;29;20227;-35
2021/04/20 06:33:38;;;;;;;1999.90;999.90;;;;;;;15.67;100.00;-18324.75;4938599;29;20618;-36
2021/04/20 06:36:25;;;;;;;1999.90;999.90;;;;;;;17.48;89.68;-18372.34;4938478;29;20232;-33
2021/04/20 06:39:13;;;;;;;1999.90;999.90;;;;;;;18.18;81.67;-18390.56;4942772;29;20695;-33
2021/04/20 06:42:00;;;;;;;1999.90;999.90;;;;;;;18.31;80.70;-18393.88;4944451;29;20302;-36
2021/04/20 06:44:59;;;;;;;1999.90;999.90;;;;;;;18.15;78.85;-18389.75;4952055;29;20354;-34
2021/04/20 06:47:53;;;;;;;1999.90;999.90;;;;;;;17.78;79.83;-18380.06;4957844;29;20704;-37
2021/04/20 06:50:40;;;;;;;1999.90;999.90;;;;;;;17.64;88.81;-18376.47;4957777;29;20202;-37
2021/04/20 06:53:27;;;;;;;1999.90;999.90;;;;;;;18.32;80.79;-18394.28;4957177;29;20650;-33
2021/04/20 06:56:37;;;;;;;1999.90;999.90;;;;;;;17.56;82.76;-18374.47;4957195;29;20234;-36
2021/04/20 06:59:39;;;;;;;1999.90;999.90;;;;;;;17.81;79.87;-18380.88;4956285;29;20213;-37
2021/04/20 07:02:36;;;;;;;1999.90;999.90;;;;;;;18.01;79.53;-18386.03;4957331;29;20205;-33
2021/04/20 07:05:29;;;;;;;1999.90;999.90;;;;;;;16.39;91.79;-18343.63;4958147;28;20309;-36
2021/04/20 07:08:23;;;;;;;1999.90;999.90;;;;;;;17.38;89.07;-18369.69;4961067;29;20207;-34
2021/04/20 07:11:12;;;;;;;1999.90;999.90;;;;;;;17.84;84.42;-18381.78;4961324;29;20212;-38
2021/04/20 07:14:01;;;;;;;1999.90;999.90;;;;;;;18.52;80.56;-18399.59;4960951;29;20204;-33
2021/04/20 07:16:56;;;;;;;1999.90;999.90;;;;;;;17.89;87.03;-18383.00;4960622;29;20208;-34
2021/04/20 07:20:02;;;;;;;1999.90;999.90;;;;;;;17.63;85.74;-18376.06;4960398;29;20212;-32
2021/04/20 07:23:24;;;;;;;1999.90;999.90;;;;;;;17.83;79.96;-18381.41;4960160;29;20219;-35
2021/04/20 07:26:32;;;;;;;1999.90;999.90;;;;;;;18.33;82.23;-18394.41;4960988;29;20621;-37
2021/04/20 07:29:43;;;;;;;1999.90;999.90;;;;;;;19.13;75.74;-18415.38;4961339;29;20196;-35
2021/04/20 07:32:37;;;;;;;1999.90;999.90;;;;;;;17.35;83.24;-18368.78;4960898;29;20256;-36
2021/04/20 07:35:29;;;;;;;1999.90;999.90;;;;;;;17.46;84.42;-18371.69;4960124;29;20236;-34
2021/04/20 07:38:24;;;;;;;1999.90;999.90;;;;;;;17.40;85.93;-18370.22;4958308;29;20215;-36
2021/04/20 07:41:20;;;;;;;1999.90;999.90;;;;;;;16.68;93.17;-18351.22;4941503;29;20702;-41
2021/04/20 07:44:16;;;;;;;1999.90;999.90;;;;;;;17.58;86.69;-18375.00;4940628;29;20208;-33
2021/04/20 07:47:09;;;;;;;1999.90;999.90;;;;;;;17.12;87.19;-18362.78;4941019;29;20197;-35
2021/04/20 07:50:02;;;;;;;1999.90;999.90;;;;;;;17.91;81.80;-18383.53;4940938;29;20204;-34
2021/04/20 07:52:52;;;;;;;1999.90;999.90;;;;;;;18.28;78.49;-18393.09;4941198;29;20307;-32
2021/04/20 07:55:46;;;;;;;1999.90;999.90;;;;;;;18.36;78.36;-18395.22;4941474;29;20240;-36
2021/04/20 07:58:43;;;;;;;1999.90;999.90;;;;;;;17.33;86.71;-18368.25;4940254;29;20460;-35
2021/04/20 08:01:42;;;;;;;1999.90;999.90;;;;;;;18.75;80.55;-18405.56;4940444;29;20628;-38
2021/04/20 08:04:48;;;;;;;1999.90;999.90;;;;;;;19.28;76.80;-18419.50;4940367;29;20681;-34
2021/04/20 08:07:42;;;;;;;1999.90;999.90;;;;;;;19.59;77.85;-18427.59;4941081;29;20355;-35
2021/04/20 08:10:39;;;;;;;1999.90;999.90;;;;;;;19.74;74.56;-18431.31;4940431;29;20204;-34
2021/04/20 08:13:36;;;;;;;1999.90;999.90;;;;;;;20.57;68.45;-18453.06;4940647;29;20210;-33
2021/04/20 08:16:29;;;;;;;1999.90;999.90;;;;;;;18.79;70.57;-18406.63;4939748;29;20239;-32
2021/04/20 08:19:23;;;;;;;1999.90;999.90;;;;;;;19.35;73.74;-18421.22;4940591;29;20672;-32
2021/04/20 08:22:17;;;;;;;1999.90;999.90;;;;;;;19.54;70.93;-18426.28;4940640;29;20220;-32
2021/04/20 08:25:06;;;;;;;1999.90;999.90;;;;;;;18.78;68.63;-18406.38;4940309;29;20276;-35
2021/04/20 08:28:00;;;;;;;1999.90;999.90;;;;;;;19.40;67.58;-18422.56;4940449;29;20502;-32
2021/04/20 08:30:50;;;;;;;1999.90;999.90;;;;;;;20.45;65.60;-18449.88;4942693;29;20207;-36
2021/04/20 08:33:44;;;;;;;1999.90;999.90;;;;;;;20.02;65.81;-18438.59;4960318;29;20219;-34
2021/04/20 08:36:37;;;;;;;1999.90;999.90;;;;;;;18.13;77.21;-18389.38;4959525;29;20510;-33
2021/04/20 08:39:35;;;;;;;1999.90;999.90;;;;;;;20.22;70.61;-18443.91;4959021;29;20341;-32
2021/04/20 08:42:33;;;;;;;1999.90;999.90;;;;;;;19.68;72.20;-18429.72;4958167;29;20564;-36
2021/04/20 08:45:35;;;;;;;1999.90;999.90;;;;;;;20.04;67.67;-18439.13;4958589;29;20200;-33
2021/04/20 08:48:36;;;;;;;1999.90;999.90;;;;;;;19.89;68.00;-18435.41;4959040;29;20261;-33
2021/04/20 08:51:28;;;;;;;1999.90;999.90;;;;;;;21.22;61.86;-18470.00;4958604;29;20204;-32
2021/04/20 08:54:35;;;;;;;1999.90;999.90;;;;;;;22.07;61.22;-18492.25;4959356;29;20206;-37
2021/04/20 08:57:30;;;;;;;1999.90;999.90;;;;;;;19.39;67.56;-18422.16;4958219;29;20277;-36
2021/04/20 09:00:26;;;;;;;1999.90;999.90;;;;;;;18.97;71.27;-18411.16;4959194;29;20211;-34
2021/04/20 09:03:21;;;;;;;1999.90;999.90;;;;;;;18.83;75.40;-18407.69;4958659;29;20479;-34
2021/04/20 09:06:23;;;;;;;1999.90;999.90;;;;;;;19.15;75.22;-18416.06;4958552;29;20194;-35
2021/04/20 09:09:14;;;;;;;1999.90;999.90;;;;;;;20.82;68.37;-18459.53;4958841;29;20212;-38
2021/04/20 09:12:13;;;;;;;1999.90;999.90;;;;;;;18.11;74.25;-18388.69;4957967;29;20356;-35
2021/04/20 09:15:02;;;;;;;1999.90;999.90;;;;;;;19.16;74.38;-18416.19;4958121;29;20238;-31
2021/04/20 09:17:52;;;;;;;1999.90;999.90;;;;;;;19.07;73.66;-18413.94;4958670;29;20208;-34
2021/04/20 09:20:50;;;;;;;1999.90;999.90;;;;;;;19.97;70.39;-18437.41;4958186;29;20471;-38
2021/04/20 09:23:50;;;;;;;1999.90;999.90;;;;;;;19.33;71.75;-18420.69;4958607;29;20411;-32
2021/04/20 09:26:41;;;;;;;1999.90;999.90;;;;;;;19.88;69.96;-18435.03;4958850;29;20222;-36
2021/04/20 09:29:32;;;;;;;1999.90;999.90;;;;;;;19.41;70.94;-18422.81;4957648;28;20200;-33
2021/04/20 09:32:23;;;;;;;1999.90;999.90;;;;;;;19.97;69.56;-18437.41;4958247;29;20486;-36
2021/04/20 09:35:15;;;;;;;1999.90;999.90;;;;;;;18.89;74.03;-18409.28;4944842;29;20687;-34
2021/04/20 09:38:05;;;;;;;1999.90;999.90;;;;;;;20.91;65.51;-18462.06;4939225;29;20498;-37
2021/04/20 09:40:53;;;;;;;1999.90;999.90;;;;;;;20.23;65.43;-18444.31;4939208;29;20208;-36
2021/04/20 09:43:56;;;;;;;1999.90;999.90;;;;;;;20.22;66.03;-18444.03;4938881;29;20294;-35
2021/04/20 09:46:53;;;;;;;1999.90;999.90;;;;;;;21.30;66.50;-18472.25;4938770;29;20299;-38
2021/04/20 09:49:46;;;;;;;1999.90;999.90;;;;;;;22.79;60.53;-18511.03;4938532;29;20345;-38
2021/04/20 09:52:44;;;;;;;1999.90;999.90;;;;;;;22.84;60.39;-18512.22;4938547;29;20210;-36
2021/04/20 09:55:35;;;;;;;1999.90;999.90;;;;;;;21.94;57.99;-18488.81;4938833;29;20224;-32
2021/04/20 09:58:23;;;;;;;1999.90;999.90;;;;;;;20.97;64.30;-18463.53;4938485;29;20538;-35
2021/04/20 10:01:25;;;;;;;1999.90;999.90;;;;;;;20.79;68.33;-18458.88;4938839;29;20608;-34
2021/04/20 10:04:17;;;;;;;1999.90;999.90;;;;;;;20.22;64.90;-18444.03;4952364;29;20724;-36
2021/04/20 10:07:17;;;;;;;1999.90;999.90;;;;;;;21.40;63.92;-18474.78;4958232;29;20733;-35
2021/04/20 10:10:16;;;;;;;1999.90;999.90;;;;;;;20.26;67.64;-18445.09;4958159;29;20223;-36
2021/04/20 10:13:17;;;;;;;1999.90;999.90;;;;;;;20.72;64.70;-18456.91;4957754;29;20199;-35
2021/04/20 10:16:09;;;;;;;1999.90;999.90;;;;;;;19.16;69.91;-18416.31;4956887;29;20725;-37
2021/04/20 10:19:12;;;;;;;1999.90;999.90;;;;;;;19.03;75.04;-18412.88;4957151;29;20206;-36
2021/04/20 10:22:09;;;;;;;1999.90;999.90;;;;;;;18.05;82.54;-18387.25;4958478;29;20203;-37
2021/04/20 10:25:12;;;;;;;1999.90;999.90;;;;;;;17.06;87.66;-18361.19;4958363;29;20208;-33
2021/04/20 10:28:10;;;;;;;1999.90;999.90;;;;;;;18.31;78.14;-18394.00;4957930;29;20298;-34
2021/04/20 10:31:10;;;;;;;1999.90;999.90;;;;;;;20.45;72.14;-18450.00;4957561;29;20315;-34
2021/04/20 10:34:00;;;;;;;1999.90;999.90;;;;;;;21.41;66.49;-18475.03;4957519;29;20291;-37
2021/04/20 10:36:51;;;;;;;1999.90;999.90;;;;;;;20.99;64.39;-18464.03;4957770;29;20506;-32
2021/04/20 10:39:45;;;;;;;1999.90;999.90;;;;;;;21.35;62.42;-18473.31;4958034;28;20208;-34
2021/04/20 10:42:34;;;;;;;1999.90;999.90;;;;;;;21.09;62.14;-18466.69;4960966;29;20634;-33
2021/04/20 10:45:26;;;;;;;1999.90;999.90;;;;;;;21.75;59.94;-18483.78;4961717;29;20346;-37
2021/04/20 10:48:16;;;;;;;1999.90;999.90;;;;;;;21.19;63.17;-18469.34;4961424;29;20207;-32
2021/04/20 10:51:12;;;;;;;1999.90;999.90;;;;;;;20.16;68.22;-18442.31;4961308;29;20246;-35
2021/04/20 10:53:58;;;;;;;1999.90;999.90;;;;;;;20.01;73.58;-18438.47;4961269;29;20338;-33
2021/04/20 10:56:50;;;;;;;1999.90;999.90;;;;;;;20.00;69.06;-18438.19;4960271;29;20503;-34
2021/04/20 10:59:39;;;;;;;1999.90;999.90;;;;;;;20.13;70.46;-18441.66;4960231;29;20202;-33
2021/04/20 11:02:36;;;;;;;1999.90;999.90;;;;;;;19.87;72.91;-18434.75;4945877;29;20219;-36
2021/04/20 11:05:24;;;;;;;1999.90;999.90;;;;;;;20.46;68.61;-18450.28;4942274;29;20208;-32
2021/04/20 11:08:10;;;;;;;1999.90;999.90;;;;;;;20.52;66.94;-18451.72;4941816;29;20548;-36
2021/04/20 11:10:56;;;;;;;1999.90;999.90;;;;;;;20.01;69.31;-18438.47;4941028;29;20210;-34
2021/04/20 11:13:43;;;;;;;1999.90;999.90;;;;;;;19.94;69.20;-18436.75;4941340;29;20272;-33
2021/04/20 11:16:36;;;;;;;1999.90;999.90;;;;;;;20.46;67.16;-18450.28;4941396;29;20303;-33
2021/04/20 11:19:23;;;;;;;1999.90;999.90;;;;;;;20.39;63.39;-18448.41;4940193;29;20207;-32
2021/04/20 11:22:13;;;;;;;1999.90;999.90;;;;;;;21.95;59.50;-18489.06;4940220;29;20213;-32
2021/04/20 11:25:02;;;;;;;1999.90;999.90;;;;;;;20.50;60.94;-18451.19;4940439;29;20275;-33
2021/04/20 11:27:55;;;;;;;1999.90;999.90;;;;;;;21.97;62.10;-18489.59;4940325;29;20209;-33
2021/04/20 11:30:51;;;;;;;1999.90;999.90;;;;;;;22.05;60.13;-18491.59;4940223;29;20580;-35
2021/04/20 11:33:40;;;;;;;1999.90;999.90;;;;;;;22.19;60.62;-18495.28;4940187;29;20220;-37
2021/04/20 11:36:29;;;;;;;1999.90;999.90;;;;;;;22.18;56.59;-18495.03;4940125;29;20462;-34
2021/04/20 11:39:25;;;;;;;1999.90;999.90;;;;;;;19.35;65.94;-18421.22;4939760;29;20304;-35
2021/04/20 11:42:15;;;;;;;1999.90;999.90;;;;;;;18.80;70.62;-18406.91;4939813;29;20491;-32
2021/04/20 11:45:10;;;;;;;1999.90;999.90;;;;;;;18.95;72.02;-18410.63;4959928;29;20490;-34
2021/04/20 11:48:05;;;;;;;1999.90;999.90;;;;;;;19.50;70.68;-18425.06;4960067;29;20210;-36
2021/04/20 11:50:58;;;;;;;1999.90;999.90;;;;;;;19.30;70.80;-18419.91;4959132;28;20251;-37
2021/04/20 11:53:49;;;;;;;1999.90;999.90;;;;;;;19.03;75.71;-18412.72;4958304;29;20203;-33
2021/04/20 11:56:39;;;;;;;1999.90;999.90;;;;;;;18.83;75.22;-18407.69;4959187;29;20280;-34
2021/04/20 11:59:26;;;;;;;1999.90;999.90;;;;;;;19.52;70.37;-18425.59;4958908;29;20574;-37
2021/04/20 12:02:14;;;;;;;1999.90;999.90;;;;;;;19.75;69.40;-18431.56;4939385;29;20215;-35
2021/04/20 12:05:04;;;;;;;1999.90;999.90;;;;;;;19.95;68.76;-18436.88;4940367;29;20492;-34
2021/04/20 12:07:52;;;;;;;1999.90;999.90;;;;;;;19.98;67.78;-18437.69;4941072;29;20309;-34
2021/04/20 12:10:41;;;;;;;1999.90;999.90;;;;;;;20.94;62.68;-18462.84;4940763;29;20307;-36
2021/04/20 12:13:35;;;;;;;1999.90;999.90;;;;;;;21.14;63.66;-18467.88;4940898;29;20209;-33
2021/04/20 12:16:23;;;;;;;1999.90;999.90;;;;;;;22.34;58.30;-18499.41;4940363;29;20643;-35
2021/04/20 12:19:14;;;;;;;1999.90;999.90;;;;;;;20.97;62.53;-18463.66;4951273;29;20243;-34
2021/04/20 12:22:06;;;;;;;1999.90;999.90;;;;;;;21.08;64.41;-18466.28;4959615;29;20312;-37
2021/04/20 12:24:54;;;;;;;1999.90;999.90;;;;;;;21.18;62.82;-18468.94;4958780;29;20212;-34
2021/04/20 12:27:44;;;;;;;1999.90;999.90;;;;;;;22.75;57.25;-18509.84;4959133;29;20341;-36